Time;durP1;ratioP1;P1;durP2;ratioP2;P2;SDS_P1;SDS_P2;PMS_P1;PMS_P2;Temp;Humidity;BMP_temperature;BMP_pressure;BME280_temperature;BME280_humidity;BME280_pressure;Samples;Min_cycle;Max_cycle;Signal;HPM_P1;HPM_P2
2022/01/03 00:00:42;;;;;;;1.00;0.82;;;9.00;99.90;;;;;;4993442;28;20173;-83
2022/01/03 00:03:10;;;;;;;0.77;0.77;;;9.10;99.90;;;;;;4993265;28;20360;-84
2022/01/03 00:05:45;;;;;;;1.85;1.02;;;9.10;99.90;;;;;;4993665;28;20022;-83
2022/01/03 00:08:11;;;;;;;2.15;0.70;;;9.20;99.90;;;;;;4993701;28;20057;-83
2022/01/03 00:10:42;;;;;;;0.68;0.60;;;9.20;99.90;;;;;;4976223;28;20394;-83
2022/01/03 00:13:08;;;;;;;2.38;0.70;;;9.20;99.90;;;;;;4993370;28;20077;-83
2022/01/03 00:15:42;;;;;;;2.03;0.88;;;9.20;99.90;;;;;;4975921;28;20053;-84
2022/01/03 00:18:07;;;;;;;1.70;0.88;;;9.20;99.90;;;;;;4976205;28;20030;-83
2022/01/03 00:20:33;;;;;;;1.17;0.82;;;9.20;99.90;;;;;;4993405;28;20431;-85
2022/01/03 00:23:08;;;;;;;0.70;0.70;;;9.20;99.90;;;;;;4993516;28;20029;-85
2022/01/03 00:25:42;;;;;;;1.52;1.13;;;9.30;99.90;;;;;;4993298;28;20529;-83
2022/01/03 00:28:21;;;;;;;1.50;0.98;;;9.30;99.90;;;;;;4993120;28;20028;-85
2022/01/03 00:30:53;;;;;;;0.73;0.73;;;9.30;99.90;;;;;;4976144;28;20054;-84
2022/01/03 00:33:20;;;;;;;0.80;0.80;;;9.40;99.90;;;;;;4992871;28;20035;-82
2022/01/03 00:35:50;;;;;;;1.92;0.65;;;9.40;99.90;;;;;;4975638;28;20035;-84
2022/01/03 00:38:18;;;;;;;1.30;0.93;;;9.40;99.90;;;;;;4993366;28;20042;-84
2022/01/03 00:40:59;;;;;;;2.58;1.02;;;9.40;99.90;;;;;;4992990;28;20105;-85
2022/01/03 00:43:26;;;;;;;8.27;1.00;;;9.40;99.90;;;;;;4975570;28;20033;-84
2022/01/03 00:45:53;;;;;;;6.45;1.13;;;9.40;99.90;;;;;;4992753;28;20050;-86
2022/01/03 00:48:28;;;;;;;1.67;1.00;;;9.40;99.90;;;;;;4993253;28;20026;-83
2022/01/03 00:50:54;;;;;;;3.72;1.48;;;9.50;99.90;;;;;;4993041;28;20109;-85
2022/01/03 00:53:19;;;;;;;1.58;0.85;;;9.50;99.90;;;;;;4993047;28;20121;-84
2022/01/03 00:56:08;;;;;;;1.33;1.00;;;9.40;99.90;;;;;;4993227;28;20475;-84
2022/01/03 00:58:54;;;;;;;3.33;1.30;;;9.40;99.90;;;;;;4992689;28;20080;-85
2022/01/03 01:01:23;;;;;;;1.92;0.93;;;9.40;99.90;;;;;;4992874;28;20081;-86
2022/01/03 01:03:53;;;;;;;2.13;1.00;;;9.40;99.90;;;;;;4992868;28;20030;-84
2022/01/03 01:06:34;;;;;;;4.53;1.10;;;9.50;99.90;;;;;;4992968;28;20019;-84
2022/01/03 01:09:03;;;;;;;3.88;1.10;;;9.40;99.90;;;;;;4988502;28;20395;-85
2022/01/03 01:11:30;;;;;;;3.20;1.15;;;9.40;99.90;;;;;;4992875;28;20026;-84
2022/01/03 01:14:02;;;;;;;2.53;0.95;;;9.50;99.90;;;;;;4992698;28;20390;-84
2022/01/03 01:16:27;;;;;;;2.63;1.20;;;9.50;99.90;;;;;;4993096;28;20501;-84
2022/01/03 01:18:53;;;;;;;2.63;1.27;;;9.50;99.90;;;;;;4993191;28;20022;-84
2022/01/03 01:21:27;;;;;;;5.35;1.42;;;9.50;99.90;;;;;;4992828;28;20022;-84
2022/01/03 01:23:53;;;;;;;8.20;2.10;;;9.50;99.90;;;;;;4992818;28;20101;-84
2022/01/03 01:29:08;;;;;;;2.85;1.23;;;9.50;99.90;;;;;;4996579;28;20085;-84
2022/01/03 01:31:35;;;;;;;5.50;1.33;;;9.60;99.90;;;;;;4978786;28;20051;-85
2022/01/03 01:34:04;;;;;;;6.05;1.50;;;9.60;99.90;;;;;;4996495;28;20030;-85
2022/01/03 01:36:36;;;;;;;6.38;1.30;;;9.60;99.90;;;;;;4996350;28;20022;-84
2022/01/03 01:39:08;;;;;;;4.10;1.60;;;9.70;99.90;;;;;;4996331;28;20034;-84
2022/01/03 01:41:41;;;;;;;6.63;1.30;;;9.60;99.90;;;;;;4996233;28;20029;-84
2022/01/03 01:44:15;;;;;;;5.80;1.60;;;9.60;99.90;;;;;;4996002;28;20030;-84
2022/01/03 01:46:57;;;;;;;7.68;1.63;;;9.60;99.90;;;;;;4976583;28;20043;-84
2022/01/03 01:49:25;;;;;;;3.30;1.55;;;9.50;99.90;;;;;;4982422;28;20030;-83
2022/01/03 01:52:02;;;;;;;8.77;1.92;;;9.50;99.90;;;;;;4978485;28;20034;-84
2022/01/03 01:54:38;;;;;;;9.20;1.77;;;9.50;99.90;;;;;;4978533;28;20034;-85
2022/01/03 01:57:34;;;;;;;4.00;1.48;;;9.50;99.90;;;;;;4995905;28;20034;-84
2022/01/03 02:00:12;;;;;;;2.22;1.38;;;9.50;99.90;;;;;;4995919;28;20042;-84
2022/01/03 02:03:04;;;;;;;5.22;1.60;;;9.50;99.90;;;;;;4995645;28;20434;-83
2022/01/03 02:05:31;;;;;;;3.78;1.60;;;9.60;99.90;;;;;;4995614;28;20538;-83
2022/01/03 02:08:31;;;;;;;9.93;1.65;;;9.60;99.90;;;;;;4978432;28;20023;-85
2022/01/03 02:11:23;;;;;;;9.48;1.95;;;9.70;99.90;;;;;;4977006;28;20031;-85
2022/01/03 02:13:49;;;;;;;10.32;3.00;;;9.70;99.90;;;;;;4995297;28;20085;-84
2022/01/03 02:16:17;;;;;;;7.70;1.70;;;9.60;99.90;;;;;;4995660;28;20038;-83
2022/01/03 02:18:43;;;;;;;5.90;1.60;;;9.70;99.90;;;;;;4995645;28;20030;-84
2022/01/03 02:21:09;;;;;;;12.30;1.90;;;9.60;99.90;;;;;;4977993;28;20033;-83
2022/01/03 02:23:50;;;;;;;7.53;1.60;;;9.70;99.90;;;;;;4995652;28;20038;-83
2022/01/03 02:26:16;;;;;;;6.55;1.83;;;9.80;99.90;;;;;;4978441;28;20470;-84
2022/01/03 02:28:41;;;;;;;10.32;2.22;;;9.70;99.90;;;;;;4995077;28;20090;-84
2022/01/03 02:31:22;;;;;;;7.03;1.42;;;9.80;99.90;;;;;;4995362;28;20109;-84
2022/01/03 02:33:48;;;;;;;10.85;2.22;;;9.80;99.90;;;;;;4977816;28;20069;-84
2022/01/03 02:36:15;;;;;;;10.50;1.77;;;9.80;99.90;;;;;;4995251;28;20037;-85
2022/01/03 02:38:56;;;;;;;12.93;2.05;;;9.80;99.90;;;;;;4976470;28;20038;-84
2022/01/03 02:41:21;;;;;;;7.13;1.73;;;9.80;99.90;;;;;;4993735;28;20034;-83
2022/01/03 02:43:50;;;;;;;12.75;1.75;;;9.80;99.90;;;;;;4995110;28;20497;-84
2022/01/03 02:46:16;;;;;;;13.57;1.83;;;9.80;99.90;;;;;;4995036;28;20038;-84
2022/01/03 02:49:06;;;;;;;8.13;2.15;;;9.80;99.90;;;;;;4995277;28;20471;-85
2022/01/03 02:51:32;;;;;;;23.88;4.32;;;9.70;99.90;;;;;;4995078;28;20022;-84
2022/01/03 02:53:58;;;;;;;9.30;1.60;;;9.70;99.90;;;;;;4977716;28;20081;-84
2022/01/03 02:56:34;;;;;;;11.38;1.90;;;9.70;99.90;;;;;;4994897;28;20065;-85
2022/01/03 02:59:00;;;;;;;7.38;1.95;;;9.70;99.90;;;;;;4977493;28;20026;-84
2022/01/03 03:01:25;;;;;;;9.15;2.13;;;9.70;99.90;;;;;;4994788;28;20038;-84
2022/01/03 03:03:52;;;;;;;12.88;2.22;;;9.70;99.90;;;;;;4994771;28;20618;-84
2022/01/03 03:06:18;;;;;;;7.55;1.80;;;9.70;99.90;;;;;;4994780;28;20054;-85
2022/01/03 03:08:52;;;;;;;19.35;3.28;;;9.70;99.90;;;;;;4994579;28;20057;-85
2022/01/03 03:11:17;;;;;;;12.00;2.42;;;9.70;99.90;;;;;;4985639;28;20029;-86
2022/01/03 03:13:43;;;;;;;13.10;1.90;;;9.70;99.90;;;;;;4994592;28;20030;-86
2022/01/03 03:16:10;;;;;;;18.65;2.00;;;9.70;99.90;;;;;;4977133;28;20033;-86
2022/01/03 03:18:36;;;;;;;10.00;2.03;;;9.80;99.90;;;;;;4994606;28;20034;-85
2022/01/03 03:21:01;;;;;;;12.43;2.00;;;9.70;99.90;;;;;;4994297;28;20430;-85
2022/01/03 03:23:29;;;;;;;14.88;1.88;;;9.70;99.90;;;;;;4994439;28;20078;-86
2022/01/03 03:25:55;;;;;;;14.20;2.05;;;9.70;99.90;;;;;;4994296;28;20037;-85
2022/01/03 03:28:24;;;;;;;8.20;1.65;;;9.70;99.90;;;;;;4994126;28;20487;-83
2022/01/03 03:30:58;;;;;;;14.90;2.17;;;9.70;99.90;;;;;;4994439;28;20034;-85
2022/01/03 03:33:23;;;;;;;16.20;1.90;;;9.60;99.90;;;;;;4976937;28;20062;-85
2022/01/03 03:35:51;;;;;;;11.25;1.70;;;9.60;99.90;;;;;;4994312;28;20482;-84
2022/01/03 03:38:25;;;;;;;12.20;2.50;;;9.60;99.90;;;;;;4976605;28;20018;-85
2022/01/03 03:40:52;;;;;;;21.25;2.75;;;9.60;99.90;;;;;;4993991;28;20519;-85
2022/01/03 03:43:19;;;;;;;13.20;3.33;;;9.60;99.90;;;;;;4993634;28;20153;-85
2022/01/03 03:45:46;;;;;;;12.00;2.25;;;9.60;99.90;;;;;;4993670;28;20030;-85
2022/01/03 03:48:43;;;;;;;6.05;1.60;;;9.60;99.90;;;;;;4993730;28;20034;-85
2022/01/03 03:51:08;;;;;;;10.73;2.08;;;9.60;99.90;;;;;;4993863;28;20022;-84
2022/01/03 03:53:35;;;;;;;7.18;1.67;;;9.60;99.90;;;;;;4976478;28;20057;-85
2022/01/03 03:56:02;;;;;;;18.05;2.33;;;9.60;99.90;;;;;;4976737;28;20026;-85
2022/01/03 03:58:27;;;;;;;11.30;2.05;;;9.60;99.90;;;;;;4993371;28;20109;-85
2022/01/03 04:00:53;;;;;;;16.83;2.05;;;9.60;99.90;;;;;;4976311;28;20113;-85
2022/01/03 04:03:21;;;;;;;10.30;2.17;;;9.60;99.90;;;;;;4993884;28;20015;-84
2022/01/03 04:05:47;;;;;;;7.70;1.58;;;9.50;99.90;;;;;;4993768;28;20049;-84
2022/01/03 04:08:12;;;;;;;5.95;1.52;;;9.40;99.90;;;;;;4976022;28;20066;-85
2022/01/03 04:10:50;;;;;;;8.90;1.67;;;9.30;99.90;;;;;;4993798;28;20360;-85
2022/01/03 04:13:16;;;;;;;12.50;2.00;;;9.30;99.90;;;;;;4968150;28;20033;-85
2022/01/03 04:15:41;;;;;;;24.38;1.85;;;9.20;99.90;;;;;;4993386;28;20471;-84
2022/01/03 04:18:08;;;;;;;14.95;1.98;;;9.20;99.90;;;;;;4993264;28;20027;-85
2022/01/03 04:20:34;;;;;;;17.63;2.30;;;9.20;99.90;;;;;;4993544;28;20097;-85
2022/01/03 04:23:00;;;;;;;14.40;2.60;;;9.20;99.90;;;;;;4993485;28;20110;-85
2022/01/03 04:25:36;;;;;;;8.90;1.70;;;9.20;99.90;;;;;;4993530;28;20022;-85
2022/01/03 04:28:02;;;;;;;20.40;2.60;;;9.30;99.90;;;;;;4993217;28;20044;-85
2022/01/03 04:30:39;;;;;;;15.65;1.65;;;9.30;99.90;;;;;;4993098;28;20022;-84
2022/01/03 04:33:04;;;;;;;13.65;1.55;;;9.20;99.90;;;;;;4993250;28;20033;-85
2022/01/03 04:35:31;;;;;;;9.15;2.53;;;9.20;99.90;;;;;;4993078;28;20487;-85
2022/01/03 04:37:59;;;;;;;10.70;1.77;;;9.20;99.90;;;;;;4993335;28;20093;-85
2022/01/03 04:40:25;;;;;;;16.55;2.50;;;9.20;99.90;;;;;;4992922;28;20026;-85
2022/01/03 04:42:59;;;;;;;11.43;2.22;;;9.20;99.90;;;;;;4975107;28;20027;-85
2022/01/03 04:45:39;;;;;;;16.85;2.80;;;9.20;99.90;;;;;;4992928;28;20486;-85
2022/01/03 04:48:05;;;;;;;10.00;2.13;;;9.20;99.90;;;;;;4993296;28;20022;-85
2022/01/03 04:50:30;;;;;;;17.00;2.40;;;9.20;99.90;;;;;;4975457;28;20033;-85
2022/01/03 04:53:01;;;;;;;8.93;2.00;;;9.20;99.90;;;;;;4993172;28;20030;-86
2022/01/03 04:55:27;;;;;;;8.80;2.08;;;9.20;99.90;;;;;;4975673;28;20090;-84
2022/01/03 04:57:53;;;;;;;9.02;2.05;;;9.20;99.90;;;;;;4992824;28;20026;-86
2022/01/03 05:00:48;;;;;;;11.02;1.85;;;9.10;99.90;;;;;;4992928;28;20027;-84
2022/01/03 05:03:14;;;;;;;10.85;3.20;;;9.10;99.90;;;;;;4996799;28;20018;-84
2022/01/03 05:05:40;;;;;;;15.90;2.47;;;9.10;99.90;;;;;;4997164;28;20027;-85
2022/01/03 05:08:06;;;;;;;17.48;2.92;;;9.10;99.90;;;;;;4996884;28;20034;-84
2022/01/03 05:10:33;;;;;;;16.75;2.60;;;9.10;99.90;;;;;;4997063;28;20034;-85
2022/01/03 05:13:06;;;;;;;13.32;2.35;;;9.10;99.90;;;;;;4996405;28;20763;-85
2022/01/03 05:15:32;;;;;;;12.00;3.53;;;9.20;99.90;;;;;;4996857;28;20038;-85
2022/01/03 05:17:57;;;;;;;12.05;2.53;;;9.10;99.90;;;;;;4996761;28;20030;-85
2022/01/03 05:20:23;;;;;;;13.85;3.05;;;9.10;99.90;;;;;;4996733;28;20558;-84
2022/01/03 05:22:48;;;;;;;9.35;2.67;;;9.20;99.90;;;;;;4978934;28;20034;-85
2022/01/03 05:25:18;;;;;;;13.35;3.22;;;9.20;99.90;;;;;;4996673;28;20107;-84
2022/01/03 05:27:44;;;;;;;10.75;3.22;;;9.20;99.90;;;;;;4978841;28;20041;-84
2022/01/03 05:30:10;;;;;;;15.32;3.28;;;9.20;99.90;;;;;;4996661;28;20030;-84
2022/01/03 05:32:38;;;;;;;23.67;5.43;;;9.20;99.90;;;;;;4978501;28;20027;-85
2022/01/03 05:35:04;;;;;;;20.00;4.70;;;9.20;99.90;;;;;;4996360;28;20027;-85
2022/01/03 05:37:29;;;;;;;12.25;3.97;;;9.20;99.90;;;;;;4978826;28;20410;-84
2022/01/03 05:39:55;;;;;;;19.02;3.42;;;9.20;99.90;;;;;;4996429;28;20030;-85
2022/01/03 05:42:21;;;;;;;14.20;4.07;;;9.20;99.90;;;;;;4996020;28;20082;-84
2022/01/03 05:44:47;;;;;;;18.08;4.30;;;9.20;99.90;;;;;;4996622;28;20442;-84
2022/01/03 05:47:15;;;;;;;23.27;5.15;;;9.20;99.90;;;;;;4978574;28;20053;-85
2022/01/03 05:49:41;;;;;;;21.42;3.97;;;9.20;99.90;;;;;;4978851;28;20113;-84
2022/01/03 05:52:06;;;;;;;15.25;3.70;;;9.20;99.90;;;;;;4995860;28;20122;-84
2022/01/03 05:54:35;;;;;;;19.10;4.10;;;9.20;99.90;;;;;;4996149;28;20102;-85
2022/01/03 05:57:01;;;;;;;19.75;3.83;;;9.20;99.90;;;;;;4995614;28;20034;-83
2022/01/03 05:59:26;;;;;;;15.48;3.42;;;9.20;99.90;;;;;;4996095;28;20113;-85
2022/01/03 06:01:54;;;;;;;18.38;3.45;;;9.20;99.90;;;;;;4978596;28;20085;-84
2022/01/03 06:04:23;;;;;;;16.60;3.67;;;9.20;99.90;;;;;;4996063;28;20022;-84
2022/01/03 06:06:59;;;;;;;25.17;3.85;;;9.20;99.90;;;;;;4995761;28;20508;-84
2022/01/03 06:09:25;;;;;;;22.38;3.80;;;9.20;99.90;;;;;;4995901;28;20022;-85
2022/01/03 06:11:55;;;;;;;17.48;3.45;;;9.10;99.90;;;;;;4977618;28;20041;-84
2022/01/03 06:14:21;;;;;;;19.42;4.22;;;9.10;99.90;;;;;;4995954;28;20037;-84
2022/01/03 06:16:48;;;;;;;20.77;3.92;;;9.10;99.90;;;;;;4995736;28;20093;-84
2022/01/03 06:19:15;;;;;;;15.00;3.65;;;9.10;99.90;;;;;;4995818;28;20026;-84
2022/01/03 06:21:47;;;;;;;13.85;3.20;;;9.00;99.90;;;;;;4977414;28;20022;-84
2022/01/03 06:24:16;;;;;;;38.08;4.70;;;8.90;99.90;;;;;;4995529;28;20077;-85
2022/01/03 06:26:43;;;;;;;22.88;4.60;;;9.00;99.90;;;;;;4994882;28;20089;-85
2022/01/03 06:29:29;;;;;;;19.67;3.63;;;9.00;99.90;;;;;;4995397;28;20034;-85
2022/01/03 06:31:54;;;;;;;22.35;3.80;;;9.00;99.90;;;;;;4995249;28;21042;-85
2022/01/03 06:34:20;;;;;;;31.25;5.63;;;9.00;99.90;;;;;;4995302;28;20026;-85
2022/01/03 06:36:46;;;;;;;19.80;4.45;;;9.00;99.90;;;;;;4994915;28;20034;-85
2022/01/03 06:39:12;;;;;;;20.27;4.45;;;9.00;99.90;;;;;;4995378;28;20022;-85
2022/01/03 06:41:39;;;;;;;23.90;4.15;;;9.10;99.90;;;;;;4993467;28;20031;-85
2022/01/03 06:44:05;;;;;;;15.07;3.55;;;9.00;99.90;;;;;;4976115;28;20022;-84
2022/01/03 06:46:31;;;;;;;27.85;4.93;;;9.00;99.90;;;;;;4999531;28;20405;-84
2022/01/03 06:48:57;;;;;;;27.85;5.45;;;8.90;99.90;;;;;;5014377;28;20026;-84
2022/01/03 06:51:22;;;;;;;36.83;4.57;;;8.90;99.90;;;;;;4999460;28;20036;-84
2022/01/03 06:53:48;;;;;;;33.55;5.55;;;8.90;99.90;;;;;;5006799;28;20060;-84
2022/01/03 06:56:14;;;;;;;25.65;4.40;;;8.90;99.90;;;;;;4976304;28;20034;-84
2022/01/03 06:58:42;;;;;;;16.92;3.63;;;9.00;99.90;;;;;;4996376;28;20111;-85
2022/01/03 07:01:09;;;;;;;18.50;4.28;;;8.90;99.90;;;;;;4998069;28;20121;-84
2022/01/03 07:03:35;;;;;;;24.65;3.78;;;8.90;99.90;;;;;;4997799;28;20018;-85
2022/01/03 07:06:06;;;;;;;21.85;4.28;;;8.90;99.90;;;;;;5001723;28;20141;-83
2022/01/03 07:08:32;;;;;;;19.30;3.85;;;8.90;99.90;;;;;;4994518;28;20031;-84
2022/01/03 07:10:58;;;;;;;18.98;3.20;;;8.90;99.90;;;;;;4976761;28;20125;-82
2022/01/03 07:13:26;;;;;;;24.98;4.13;;;8.90;99.90;;;;;;4993567;28;20085;-83
2022/01/03 07:21:20;;;;;;;21.98;3.75;;;9.00;99.90;;;;;;4993066;28;20093;-84
2022/01/03 07:23:45;;;;;;;31.75;5.65;;;9.00;99.90;;;;;;4976218;28;20022;-84
2022/01/03 07:26:11;;;;;;;20.70;4.85;;;9.00;99.90;;;;;;4993132;28;20093;-83
2022/01/03 07:28:37;;;;;;;17.30;3.75;;;9.00;99.90;;;;;;4993513;28;20117;-83
2022/01/03 07:31:02;;;;;;;21.83;4.20;;;9.00;99.90;;;;;;4993632;28;20128;-83
2022/01/03 07:33:28;;;;;;;20.52;3.40;;;9.10;99.90;;;;;;4991053;28;20505;-84
2022/01/03 07:35:54;;;;;;;24.10;5.05;;;9.00;99.90;;;;;;4976469;28;20065;-84
2022/01/03 07:38:19;;;;;;;17.20;3.10;;;9.10;99.90;;;;;;4993715;28;20026;-84
2022/01/03 07:40:45;;;;;;;28.20;4.07;;;9.10;99.90;;;;;;4993591;28;20042;-84
2022/01/03 07:43:11;;;;;;;27.85;4.05;;;9.10;99.90;;;;;;4992638;28;20032;-83
2022/01/03 07:45:37;;;;;;;21.48;3.63;;;9.10;99.90;;;;;;4984451;28;20034;-84
2022/01/03 07:48:02;;;;;;;24.20;4.20;;;9.10;99.90;;;;;;4979513;28;20112;-83
2022/01/03 07:50:29;;;;;;;25.98;3.90;;;9.10;99.90;;;;;;4976256;28;20177;-83
2022/01/03 07:52:58;;;;;;;45.15;5.32;;;9.10;99.90;;;;;;4993329;28;20022;-84
2022/01/03 07:55:24;;;;;;;23.80;4.85;;;9.10;99.90;;;;;;4992443;28;20041;-84
2022/01/03 07:57:49;;;;;;;18.23;3.40;;;9.20;99.90;;;;;;4993215;28;20026;-83
2022/01/03 08:00:17;;;;;;;29.40;5.20;;;9.20;99.90;;;;;;4993268;28;20034;-84
2022/01/03 08:02:43;;;;;;;29.30;3.75;;;9.20;99.90;;;;;;4992585;28;20077;-85
2022/01/03 08:05:12;;;;;;;21.20;3.72;;;9.20;99.90;;;;;;4992980;28;20026;-84
2022/01/03 08:07:38;;;;;;;20.65;3.70;;;9.30;99.90;;;;;;4993264;28;20030;-84
2022/01/03 08:10:06;;;;;;;15.88;3.90;;;9.30;99.90;;;;;;4993045;28;20023;-82
2022/01/03 08:12:31;;;;;;;21.40;3.90;;;9.20;99.90;;;;;;4993096;28;20054;-82
2022/01/03 08:14:57;;;;;;;24.45;4.32;;;9.30;99.90;;;;;;4992042;28;20073;-83
2022/01/03 08:17:23;;;;;;;23.52;3.40;;;9.30;99.90;;;;;;4979835;28;20034;-82
2022/01/03 08:19:48;;;;;;;19.42;4.03;;;9.30;99.90;;;;;;4990636;28;20034;-83
2022/01/03 08:22:14;;;;;;;31.35;3.92;;;9.30;99.90;;;;;;4991193;28;20023;-83
2022/01/03 08:24:40;;;;;;;20.88;3.90;;;9.30;99.90;;;;;;4992745;28;20027;-82
2022/01/03 08:27:06;;;;;;;28.63;5.10;;;9.30;99.90;;;;;;4992671;28;20038;-83
2022/01/03 08:29:31;;;;;;;19.27;3.58;;;9.30;99.90;;;;;;4992787;28;20098;-83
2022/01/03 08:31:57;;;;;;;21.92;3.88;;;9.30;99.90;;;;;;4992405;28;20031;-83
2022/01/03 08:34:23;;;;;;;17.35;3.95;;;9.30;99.90;;;;;;4992086;28;20098;-84
2022/01/03 08:36:48;;;;;;;22.70;3.58;;;9.30;99.90;;;;;;4993090;28;20049;-85
2022/01/03 08:39:14;;;;;;;21.00;3.38;;;9.30;99.90;;;;;;4992908;28;20038;-85
2022/01/03 08:41:39;;;;;;;20.35;3.45;;;9.30;99.90;;;;;;4991728;28;20038;-84
2022/01/03 08:44:06;;;;;;;23.77;3.70;;;9.30;99.90;;;;;;4975020;28;20045;-84
2022/01/03 08:46:32;;;;;;;19.55;3.78;;;9.30;99.90;;;;;;4992511;28;20034;-83
2022/01/03 08:48:57;;;;;;;23.85;4.30;;;9.40;99.90;;;;;;4975008;28;20049;-83
2022/01/03 08:51:25;;;;;;;27.70;5.25;;;9.40;99.90;;;;;;4992328;28;20045;-84
2022/01/03 08:53:51;;;;;;;19.77;3.40;;;9.40;99.90;;;;;;4991710;28;20022;-85
2022/01/03 08:56:17;;;;;;;16.13;3.03;;;9.40;99.90;;;;;;4992302;28;20040;-85
2022/01/03 08:58:42;;;;;;;20.98;3.40;;;9.40;99.90;;;;;;4992677;28;20387;-84
2022/01/03 09:01:08;;;;;;;16.50;3.95;;;9.40;99.90;;;;;;4974940;28;20038;-85
2022/01/03 09:03:34;;;;;;;20.75;3.88;;;9.50;99.90;;;;;;4992449;28;20023;-85
2022/01/03 09:06:00;;;;;;;14.60;2.70;;;9.50;99.90;;;;;;4975028;28;20084;-85
2022/01/03 09:08:25;;;;;;;16.17;2.67;;;9.50;99.90;;;;;;4992010;28;20542;-84
2022/01/03 09:10:53;;;;;;;23.00;3.40;;;9.50;99.90;;;;;;4992006;28;20486;-85
2022/01/03 09:13:20;;;;;;;25.77;3.78;;;9.50;99.90;;;;;;4992419;28;20442;-84
2022/01/03 09:15:46;;;;;;;26.38;4.57;;;9.60;99.90;;;;;;4992291;28;20498;-84
2022/01/03 09:18:17;;;;;;;23.63;4.15;;;9.60;99.90;;;;;;4975172;28;20053;-84
2022/01/03 09:20:44;;;;;;;25.55;4.78;;;9.60;99.90;;;;;;4992178;28;20471;-84
2022/01/03 09:23:16;;;;;;;20.17;3.40;;;9.70;99.90;;;;;;4971649;28;20037;-84
2022/01/03 09:30:55;;;;;;;20.80;3.35;;;9.70;99.90;;;;;;4992556;28;20085;-84
2022/01/03 09:33:21;;;;;;;16.50;3.60;;;9.70;99.90;;;;;;4974701;28;20042;-85
2022/01/03 09:35:47;;;;;;;21.55;3.92;;;9.70;99.90;;;;;;4974421;28;20390;-84
2022/01/03 09:38:12;;;;;;;16.40;4.22;;;9.80;99.90;;;;;;4991359;28;20022;-84
2022/01/03 09:40:40;;;;;;;17.50;3.67;;;9.80;99.90;;;;;;4991133;28;20031;-85
2022/01/03 09:43:08;;;;;;;21.33;3.95;;;9.80;99.90;;;;;;4973830;28;20022;-85
2022/01/03 09:45:34;;;;;;;23.52;3.92;;;9.80;99.90;;;;;;4991300;28;20058;-85
2022/01/03 09:48:02;;;;;;;17.73;3.00;;;9.90;99.90;;;;;;4993376;28;20069;-85
2022/01/03 09:50:32;;;;;;;15.57;3.15;;;9.90;99.90;;;;;;4995794;28;20034;-84
2022/01/03 09:52:57;;;;;;;23.48;3.67;;;9.90;99.90;;;;;;4994998;28;20459;-85
2022/01/03 09:55:23;;;;;;;24.83;3.30;;;9.90;99.90;;;;;;4995752;28;20042;-85
2022/01/03 09:57:49;;;;;;;26.50;2.97;;;9.90;99.90;;;;;;4977598;28;20129;-85
2022/01/03 10:00:22;;;;;;;19.63;3.05;;;9.80;99.90;;;;;;4995033;28;20480;-85
2022/01/03 10:02:50;;;;;;;40.78;3.97;;;9.80;99.90;;;;;;4995146;28;20018;-84
2022/01/03 10:05:16;;;;;;;22.58;3.53;;;9.80;99.90;;;;;;4995059;28;20022;-85
2022/01/03 10:07:42;;;;;;;20.42;3.22;;;9.80;99.90;;;;;;4976427;28;20044;-84
2022/01/03 10:10:09;;;;;;;22.95;4.10;;;9.80;99.90;;;;;;4977503;28;20544;-85
2022/01/03 10:12:36;;;;;;;16.45;2.92;;;9.80;99.90;;;;;;4994317;28;20113;-85
2022/01/03 10:15:06;;;;;;;25.58;3.78;;;9.80;99.90;;;;;;4963434;28;20037;-84
2022/01/03 10:17:36;;;;;;;26.58;4.82;;;9.80;99.90;;;;;;4995080;28;20061;-84
2022/01/03 10:20:04;;;;;;;21.55;3.30;;;9.70;99.90;;;;;;4977723;28;20034;-84
2022/01/03 10:22:33;;;;;;;24.70;4.78;;;9.70;99.90;;;;;;4994656;28;20387;-85
2022/01/03 10:25:11;;;;;;;19.90;3.58;;;9.70;99.90;;;;;;4994907;28;20422;-84
2022/01/03 10:28:31;;;;;;;25.48;3.22;;;9.70;99.90;;;;;;4993940;28;20030;-85
2022/01/03 10:31:22;;;;;;;25.48;2.83;;;9.70;99.90;;;;;;4970307;28;20034;-84
2022/01/03 10:34:05;;;;;;;17.98;3.35;;;9.80;99.90;;;;;;4977975;28;20118;-84
2022/01/03 10:36:33;;;;;;;19.27;3.42;;;9.80;99.90;;;;;;4993864;28;20085;-85
2022/01/03 10:39:10;;;;;;;18.10;3.47;;;9.80;99.90;;;;;;4993688;28;20101;-83
2022/01/03 10:41:35;;;;;;;9.90;2.55;;;9.70;99.90;;;;;;4994389;28;20041;-84
2022/01/03 10:44:01;;;;;;;18.92;3.13;;;9.80;99.90;;;;;;4976542;28;20034;-85
2022/01/03 10:46:32;;;;;;;26.13;4.15;;;9.80;99.90;;;;;;4977007;28;20066;-85
2022/01/03 10:49:12;;;;;;;22.20;3.70;;;9.80;99.90;;;;;;4977057;28;20054;-84
2022/01/03 10:51:37;;;;;;;19.15;3.50;;;9.80;99.90;;;;;;4977133;28;20041;-84
2022/01/03 10:54:08;;;;;;;30.98;3.50;;;9.80;99.90;;;;;;4993632;28;20034;-85
2022/01/03 10:56:35;;;;;;;23.83;5.25;;;9.80;99.90;;;;;;4993762;28;20041;-85
2022/01/03 10:59:23;;;;;;;17.85;3.15;;;9.80;99.90;;;;;;4993227;28;20038;-84
2022/01/03 11:01:58;;;;;;;15.43;2.78;;;9.80;99.90;;;;;;4993708;28;20447;-84
2022/01/03 11:13:10;;;;;;;20.80;3.05;;;9.90;99.90;;;;;;4991053;28;20037;-85
2022/01/03 11:15:38;;;;;;;15.10;2.60;;;10.00;99.90;;;;;;4957409;28;20460;-85
2022/01/03 11:18:16;;;;;;;12.48;2.83;;;10.10;99.90;;;;;;4985714;28;20026;-84
2022/01/03 11:20:44;;;;;;;15.55;3.13;;;10.10;99.90;;;;;;4993811;28;20501;-85
2022/01/03 11:23:18;;;;;;;14.77;3.08;;;10.20;99.90;;;;;;4994134;28;20018;-84
2022/01/03 11:25:44;;;;;;;23.33;3.30;;;10.20;99.90;;;;;;4993943;28;20498;-84
2022/01/03 11:28:10;;;;;;;23.23;2.88;;;10.20;99.90;;;;;;4993920;28;20117;-84
2022/01/03 11:30:38;;;;;;;21.23;3.45;;;10.30;99.90;;;;;;4992303;28;20061;-85
2022/01/03 11:33:04;;;;;;;15.77;2.55;;;10.40;99.90;;;;;;4993790;28;20478;-84
2022/01/03 11:35:32;;;;;;;13.50;2.83;;;10.40;99.90;;;;;;4975257;28;20037;-85
2022/01/03 11:38:00;;;;;;;12.02;2.85;;;10.50;99.90;;;;;;4993388;28;20030;-84
2022/01/03 11:40:27;;;;;;;10.52;2.55;;;10.50;99.90;;;;;;4993006;28;20030;-84
2022/01/03 11:42:53;;;;;;;23.15;3.13;;;10.40;99.90;;;;;;4993551;28;20470;-84
2022/01/03 11:45:19;;;;;;;10.32;3.00;;;10.40;99.90;;;;;;4992682;28;20039;-84
2022/01/03 11:47:45;;;;;;;11.98;2.42;;;10.40;99.90;;;;;;4976959;28;20030;-84
2022/01/03 11:50:11;;;;;;;9.02;1.63;;;10.30;99.90;;;;;;4978172;28;20407;-86
2022/01/03 11:52:47;;;;;;;6.30;1.17;;;10.40;99.90;;;;;;4993367;28;20038;-84
2022/01/03 11:55:14;;;;;;;9.73;1.88;;;10.10;99.90;;;;;;4975911;28;20049;-85
2022/01/03 12:03:50;;;;;;;5.22;1.65;;;9.80;99.90;;;;;;4988333;28;20029;-83
2022/01/03 12:06:26;;;;;;;7.75;1.73;;;9.80;99.90;;;;;;4999769;28;20026;-84
2022/01/03 12:09:01;;;;;;;8.57;2.25;;;9.60;99.90;;;;;;4998252;28;20030;-84
2022/01/03 12:11:28;;;;;;;10.30;1.55;;;9.50;99.90;;;;;;4992503;28;20037;-85
2022/01/03 12:14:09;;;;;;;4.55;1.40;;;9.40;99.90;;;;;;4975064;28;20034;-84
2022/01/03 12:16:46;;;;;;;5.30;1.67;;;9.30;99.90;;;;;;4973674;28;20031;-84
2022/01/03 12:19:27;;;;;;;5.10;1.52;;;9.30;99.90;;;;;;4973568;28;20030;-85
2022/01/03 12:21:54;;;;;;;4.43;1.75;;;9.20;99.90;;;;;;5004018;28;20389;-83
2022/01/03 12:24:28;;;;;;;3.55;1.60;;;9.10;99.90;;;;;;4992757;28;20057;-83
2022/01/03 12:27:09;;;;;;;7.22;1.50;;;9.10;99.90;;;;;;4992433;28;20516;-83
2022/01/03 12:29:55;;;;;;;4.22;1.25;;;9.10;99.90;;;;;;4992525;28;20034;-83
2022/01/03 12:32:29;;;;;;;7.07;1.42;;;9.10;99.90;;;;;;4992358;28;20035;-82
2022/01/03 12:35:15;;;;;;;8.60;1.73;;;9.20;99.90;;;;;;4992764;28;20073;-83
2022/01/03 12:37:49;;;;;;;;;;;9.10;99.90;;;;;;4992335;28;20035;-83
2022/01/03 12:40:21;;;;;;;10.30;1.83;;;9.10;99.90;;;;;;4974507;28;19914;-83
2022/01/03 12:42:53;;;;;;;12.32;2.88;;;9.10;99.90;;;;;;4974999;28;20054;-83
2022/01/03 12:45:32;;;;;;;9.55;2.47;;;9.10;99.90;;;;;;4974891;28;20037;-84
2022/01/03 12:50:35;;;;;;;8.57;1.40;;;9.10;99.90;;;;;;4992306;28;20661;-84
2022/01/03 12:53:07;;;;;;;12.85;2.10;;;9.10;99.90;;;;;;4990412;28;20040;-84
2022/01/03 12:55:41;;;;;;;10.45;3.00;;;9.10;99.90;;;;;;4991777;28;20038;-84
2022/01/03 12:58:16;;;;;;;11.30;1.92;;;9.10;99.90;;;;;;4977735;28;20026;-84
2022/01/03 13:00:45;;;;;;;4.82;1.73;;;9.10;99.90;;;;;;4973702;28;20109;-84
2022/01/03 13:03:25;;;;;;;2.67;1.55;;;9.10;99.90;;;;;;4991452;28;20118;-84
2022/01/03 13:06:21;;;;;;;5.60;1.75;;;9.10;99.90;;;;;;4974239;28;20486;-84
2022/01/03 13:08:55;;;;;;;7.60;1.60;;;9.10;99.90;;;;;;4973651;28;20034;-84
2022/01/03 13:11:27;;;;;;;6.38;1.55;;;9.10;99.90;;;;;;4959554;28;20117;-84
2022/01/03 13:14:20;;;;;;;10.60;1.52;;;9.10;99.90;;;;;;4992849;28;20033;-84
2022/01/03 13:16:48;;;;;;;8.20;1.77;;;9.10;99.90;;;;;;4992657;28;20446;-84
2022/01/03 13:19:18;;;;;;;17.15;2.15;;;9.10;99.90;;;;;;4975343;28;20030;-83
2022/01/03 13:21:50;;;;;;;9.57;1.98;;;9.00;99.90;;;;;;4993420;28;20035;-84
2022/01/03 13:24:56;;;;;;;5.32;1.67;;;8.90;99.90;;;;;;4996355;28;20030;-83
2022/01/03 13:27:22;;;;;;;6.60;1.63;;;8.90;99.90;;;;;;4994785;28;20390;-85
2022/01/03 13:29:52;;;;;;;7.15;1.65;;;8.80;99.90;;;;;;4977854;28;20034;-85
2022/01/03 13:32:24;;;;;;;10.50;1.90;;;8.70;99.90;;;;;;4995321;28;20035;-85
2022/01/03 13:34:51;;;;;;;5.60;1.60;;;8.70;99.90;;;;;;4995370;28;20049;-88